Terminal Aerodrome Forecast
Issued by NWS

Home | Current Version | Previous Version | Text Only | Print | Product List | Glossary On
Versions: 1 2 3 4 5 6 7 8 9 10 11 12 13 14
165
FTUS43 KEAX 141720
TAFSTJ
TAF
KSTJ 141720Z 1418/1518 24010KT P6SM BKN035
     FM142300 VRB03KT P6SM SCT200
     FM150600 VRB03KT P6SM BKN100=

USA.gov is the U.S. government's official web portal to all federal, state and local government web resources and services.